createdAt,value
2019-03-04T00:00:17.920Z,4.20
2019-03-04T00:02:45.204Z,3.33
2019-03-04T00:05:12.621Z,3.80
2019-03-04T00:07:40.985Z,3.53
2019-03-04T00:10:08.180Z,3.77
2019-03-04T00:12:35.166Z,3.60
2019-03-04T00:15:02.442Z,3.20
2019-03-04T00:17:29.368Z,3.37
2019-03-04T00:19:57.030Z,3.70
2019-03-04T00:22:23.956Z,2.80
2019-03-04T00:24:51.303Z,3.30
2019-03-04T00:27:18.276Z,3.10
2019-03-04T00:29:45.233Z,3.40
2019-03-04T00:32:12.214Z,3.47
2019-03-04T00:34:39.130Z,3.40
2019-03-04T00:37:06.045Z,3.50
2019-03-04T00:39:32.995Z,3.53
2019-03-04T00:41:59.951Z,3.17
2019-03-04T00:44:26.869Z,3.03
2019-03-04T00:46:53.833Z,3.23
2019-03-04T00:49:20.748Z,3.50
2019-03-04T00:51:47.687Z,3.53
2019-03-04T00:54:14.651Z,3.20
2019-03-04T00:56:41.634Z,3.10
2019-03-04T00:59:08.538Z,3.67
2019-03-04T01:01:35.468Z,3.93
2019-03-04T01:04:02.434Z,3.60
2019-03-04T01:06:29.408Z,3.33
2019-03-04T01:08:56.394Z,3.37
2019-03-04T01:11:23.370Z,3.50
2019-03-04T01:13:50.399Z,3.13
2019-03-04T01:16:17.328Z,3.80
2019-03-04T01:18:44.276Z,3.70
2019-03-04T01:21:11.210Z,3.57
2019-03-04T01:23:38.179Z,3.67
2019-03-04T01:26:05.133Z,3.67
2019-03-04T01:28:32.128Z,3.30
2019-03-04T01:30:59.074Z,3.87
2019-03-04T01:33:26.029Z,4.10
2019-03-04T01:35:52.964Z,3.40
2019-03-04T01:38:19.927Z,3.00
2019-03-04T01:40:46.857Z,3.03
2019-03-04T01:43:13.790Z,3.33
2019-03-04T01:45:40.731Z,3.00
2019-03-04T01:48:07.694Z,3.07
2019-03-04T01:50:34.652Z,3.60
2019-03-04T01:53:01.580Z,4.80
2019-03-04T01:55:28.512Z,3.20
2019-03-04T01:57:55.474Z,3.30
2019-03-04T02:00:22.417Z,3.00
2019-03-04T02:02:49.391Z,3.33
2019-03-04T02:05:16.383Z,3.73
2019-03-04T02:07:43.327Z,3.70
2019-03-04T02:10:12.389Z,4.07
2019-03-04T02:12:39.319Z,3.80
2019-03-04T02:15:07.569Z,3.17
2019-03-04T02:17:34.531Z,3.60
2019-03-04T02:20:01.445Z,3.10
2019-03-04T02:22:28.353Z,3.37
2019-03-04T02:24:55.349Z,3.03
2019-03-04T02:27:22.298Z,3.93
2019-03-04T02:29:49.262Z,3.50
2019-03-04T02:32:16.228Z,3.27
2019-03-04T02:34:43.178Z,4.63
2019-03-04T02:37:10.113Z,3.57
2019-03-04T02:39:37.079Z,3.57
2019-03-04T02:42:04.078Z,3.17
2019-03-04T02:44:30.969Z,3.50
2019-03-04T02:46:57.894Z,3.53
2019-03-04T02:49:24.834Z,3.03
2019-03-04T02:51:51.774Z,3.37
2019-03-04T02:54:18.697Z,3.33
2019-03-04T02:56:45.687Z,3.40
2019-03-04T02:59:12.653Z,3.60
2019-03-04T03:01:39.598Z,3.60
2019-03-04T03:04:06.582Z,4.03
2019-03-04T03:06:33.511Z,3.73
2019-03-04T03:09:00.490Z,3.10
2019-03-04T03:11:27.461Z,3.50
2019-03-04T03:13:54.406Z,3.40
2019-03-04T03:16:21.391Z,3.47
2019-03-04T03:18:48.330Z,3.20
2019-03-04T03:21:15.260Z,3.20
2019-03-04T03:23:42.185Z,3.20
2019-03-04T03:26:09.145Z,4.30
2019-03-04T03:28:36.091Z,3.30
2019-03-04T03:31:03.045Z,3.80
2019-03-04T03:33:29.993Z,2.87
2019-03-04T03:35:57.043Z,2.80
2019-03-04T03:38:23.983Z,2.93
2019-03-04T03:40:50.881Z,3.23
2019-03-04T03:43:17.800Z,3.10
2019-03-04T03:45:44.714Z,4.00
2019-03-04T03:48:11.607Z,4.07
2019-03-04T03:50:38.559Z,3.60
2019-03-04T03:53:05.502Z,4.07
2019-03-04T03:55:57.498Z,3.40
2019-03-04T03:58:25.494Z,3.23
2019-03-04T04:00:51.455Z,3.27
2019-03-04T04:03:18.428Z,3.50
2019-03-04T04:05:45.362Z,3.53
2019-03-04T04:08:12.399Z,3.83
2019-03-04T04:10:40.306Z,3.47
2019-03-04T04:13:07.209Z,3.43
2019-03-04T04:15:34.184Z,3.17
2019-03-04T04:18:01.128Z,2.97
2019-03-04T04:20:28.079Z,3.30
2019-03-04T04:22:55.040Z,2.83
2019-03-04T04:25:21.991Z,3.20
2019-03-04T04:27:48.921Z,3.57
2019-03-04T04:30:16.651Z,3.40
2019-03-04T04:32:43.633Z,3.40
2019-03-04T04:35:10.573Z,3.40
2019-03-04T04:37:37.527Z,3.87
2019-03-04T04:40:04.487Z,4.50
2019-03-04T04:42:32.218Z,3.40
2019-03-04T04:44:59.142Z,3.47
2019-03-04T04:47:26.151Z,3.20
2019-03-04T04:49:53.159Z,3.60
2019-03-04T04:52:20.087Z,3.27
2019-03-04T04:54:46.986Z,3.00
2019-03-04T04:57:13.990Z,3.50
2019-03-04T04:59:41.009Z,3.80
2019-03-04T05:02:07.943Z,3.63
2019-03-04T05:04:34.889Z,3.13
2019-03-04T05:07:01.834Z,5.30
2019-03-04T05:09:28.775Z,10.97
2019-03-04T05:11:55.805Z,12.00
2019-03-04T05:14:22.761Z,12.00
2019-03-04T05:16:49.743Z,15.93
2019-03-04T05:19:16.717Z,32.30
2019-03-04T05:21:43.698Z,11.50
2019-03-04T05:24:10.662Z,10.13
2019-03-04T05:26:37.589Z,7.93
2019-03-04T05:29:04.556Z,14.60
2019-03-04T05:31:31.474Z,11.90
2019-03-04T05:33:58.426Z,13.03
2019-03-04T05:36:25.366Z,8.97
2019-03-04T05:38:52.332Z,7.97
2019-03-04T05:41:19.293Z,8.83
2019-03-04T05:43:46.396Z,7.70
2019-03-04T05:46:15.275Z,11.00
2019-03-04T05:48:52.978Z,10.60
2019-03-04T05:51:20.157Z,8.87
2019-03-04T05:53:47.121Z,7.90
2019-03-04T05:56:17.035Z,9.60
2019-03-04T05:58:44.353Z,8.60
2019-03-04T06:01:16.999Z,8.90
2019-03-04T06:03:44.695Z,9.47
2019-03-04T06:06:12.262Z,10.97
2019-03-04T06:08:44.131Z,9.93
2019-03-04T06:14:07.965Z,7.70
2019-03-04T06:16:34.994Z,7.40
2019-03-04T06:19:02.096Z,6.83
2019-03-04T06:21:29.132Z,6.23
2019-03-04T06:23:56.242Z,7.43
2019-03-04T06:26:23.260Z,6.83
2019-03-04T06:28:50.298Z,7.30
2019-03-04T06:31:17.391Z,7.80
2019-03-04T06:33:44.388Z,6.13
2019-03-04T06:36:11.391Z,8.73
2019-03-04T06:38:38.388Z,7.20
2019-03-04T06:41:05.353Z,6.30
2019-03-04T06:43:32.330Z,6.57
2019-03-04T06:45:59.349Z,5.53
2019-03-04T06:48:26.331Z,5.70
2019-03-04T06:50:54.117Z,3.97
2019-03-04T06:53:40.268Z,4.93
2019-03-04T06:56:46.661Z,4.80
2019-03-04T07:00:21.914Z,5.83
2019-03-04T07:02:48.930Z,5.60
2019-03-04T07:05:49.335Z,5.73
2019-03-04T07:09:27.070Z,6.20
2019-03-04T07:11:54.160Z,5.97
2019-03-04T07:14:21.414Z,4.50
2019-03-04T07:16:49.624Z,5.20
2019-03-04T07:19:18.980Z,4.97
2019-03-04T07:21:46.176Z,5.60
2019-03-04T07:24:13.206Z,5.30
2019-03-04T07:26:40.222Z,5.10
2019-03-04T07:29:07.293Z,6.17
2019-03-04T07:31:34.445Z,4.33
2019-03-04T07:34:01.515Z,5.87
2019-03-04T07:36:29.343Z,5.70
2019-03-04T07:38:58.203Z,5.67
2019-03-04T07:41:27.482Z,6.13
2019-03-04T07:43:54.576Z,7.47
2019-03-04T07:46:21.575Z,5.90
2019-03-04T07:48:48.696Z,5.97
2019-03-04T07:51:15.762Z,5.60
2019-03-04T07:53:46.253Z,6.03
2019-03-04T07:56:10.114Z,6.43
2019-03-04T07:58:38.326Z,6.67
2019-03-04T08:01:05.388Z,6.60
2019-03-04T08:03:32.806Z,4.73
2019-03-04T08:05:59.928Z,6.40
2019-03-04T08:08:26.965Z,5.33
2019-03-04T08:12:10.900Z,5.53
2019-03-04T08:14:38.603Z,7.17
2019-03-04T08:17:05.508Z,5.40
2019-03-04T08:19:33.289Z,5.00
2019-03-04T08:22:00.379Z,4.97
2019-03-04T08:24:27.469Z,4.80
2019-03-04T08:26:54.394Z,5.40
2019-03-04T08:29:21.313Z,4.20
2019-03-04T08:31:48.291Z,4.30
2019-03-04T08:34:15.430Z,4.27
2019-03-04T08:36:42.487Z,4.77
2019-03-04T08:39:09.501Z,4.27
2019-03-04T08:41:36.545Z,3.97
2019-03-04T08:44:03.605Z,3.77
2019-03-04T08:46:30.974Z,3.93
2019-03-04T08:48:57.998Z,4.20
2019-03-04T08:51:24.955Z,4.00
2019-03-04T08:53:51.913Z,3.30
2019-03-04T08:56:18.925Z,4.77
2019-03-04T08:58:45.938Z,5.13
2019-03-04T09:01:13.181Z,4.03
2019-03-04T09:03:40.302Z,4.13
2019-03-04T09:06:07.291Z,4.67
2019-03-04T09:08:34.277Z,4.70
2019-03-04T09:11:01.253Z,5.10
2019-03-04T09:13:28.289Z,4.97
2019-03-04T09:15:58.818Z,5.50
2019-03-04T09:18:25.947Z,4.57
2019-03-04T09:20:52.956Z,3.83
2019-03-04T09:23:20.055Z,4.17
2019-03-04T09:25:51.248Z,4.23
2019-03-04T09:28:18.355Z,3.97
2019-03-04T09:35:39.921Z,5.53
2019-03-04T09:38:07.049Z,7.00
2019-03-04T09:40:34.271Z,5.73
2019-03-04T09:43:01.463Z,4.40
2019-03-04T09:45:38.041Z,5.67
2019-03-04T09:47:55.775Z,4.45
2019-03-04T09:50:22.881Z,4.53
2019-03-04T09:52:50.221Z,3.33
2019-03-04T09:55:17.423Z,4.63
2019-03-04T09:57:44.658Z,2.77
2019-03-04T10:00:26.027Z,3.33
2019-03-04T10:02:53.105Z,3.77
2019-03-04T10:05:31.938Z,3.20
2019-03-04T10:08:05.610Z,3.10
2019-03-04T10:10:42.232Z,5.47
2019-03-04T10:13:20.147Z,4.30
2019-03-04T10:16:18.713Z,5.13
2019-03-04T10:18:57.302Z,4.83
2019-03-04T10:21:50.089Z,3.43
2019-03-04T10:26:32.463Z,4.50
2019-03-04T10:29:08.221Z,5.43
2019-03-04T10:31:47.323Z,3.50
2019-03-04T10:36:40.768Z,4.73
2019-03-04T10:39:47.811Z,4.27
2019-03-04T10:44:37.556Z,4.05
2019-03-04T10:46:59.189Z,3.27
2019-03-04T10:49:27.852Z,2.95
2019-03-04T10:51:54.922Z,3.50
2019-03-04T10:54:22.117Z,3.22
2019-03-04T10:56:50.069Z,3.15
2019-03-04T10:59:17.119Z,3.83
2019-03-04T11:01:44.193Z,3.60
2019-03-04T11:04:11.194Z,3.50
2019-03-04T11:06:38.184Z,2.40
2019-03-04T11:09:06.653Z,4.20
2019-03-04T11:11:33.730Z,3.93
2019-03-04T11:14:00.694Z,3.43
2019-03-04T11:16:27.712Z,3.52
2019-03-04T11:18:54.679Z,2.53
2019-03-04T11:21:21.767Z,3.08
2019-03-04T11:23:48.830Z,4.30
2019-03-04T11:26:15.831Z,2.27
2019-03-04T11:28:42.778Z,4.17
2019-03-04T11:31:09.787Z,2.70
2019-03-04T11:33:37.766Z,2.20
2019-03-04T11:36:04.862Z,2.40
2019-03-04T11:38:35.075Z,2.13
2019-03-04T11:41:02.111Z,3.13
2019-03-04T11:43:29.302Z,3.17
2019-03-04T11:45:57.293Z,2.97
2019-03-04T11:48:24.290Z,1.97
2019-03-04T11:50:51.319Z,2.73
2019-03-04T11:53:18.368Z,2.00
2019-03-04T11:55:45.485Z,2.27
2019-03-04T11:58:12.455Z,2.90
2019-03-04T12:00:42.071Z,2.43
2019-03-04T12:03:09.055Z,2.23
2019-03-04T12:05:36.044Z,3.47
2019-03-04T12:08:03.335Z,1.90
2019-03-04T12:10:30.293Z,1.83
2019-03-04T12:12:57.361Z,3.13
2019-03-04T12:15:24.375Z,2.70
2019-03-04T12:17:51.502Z,3.53
2019-03-04T12:20:18.577Z,2.50
2019-03-04T12:22:45.651Z,3.10
2019-03-04T12:25:12.814Z,3.00
2019-03-04T12:27:39.936Z,3.83
2019-03-04T12:30:11.015Z,3.07
2019-03-04T12:32:38.160Z,3.40
2019-03-04T12:35:08.514Z,3.23
2019-03-04T12:37:35.511Z,3.43
2019-03-04T12:40:02.634Z,2.37
2019-03-04T12:42:29.599Z,3.77
2019-03-04T12:44:56.859Z,2.87
2019-03-04T12:47:23.790Z,3.03
2019-03-04T12:49:50.773Z,4.67
2019-03-04T12:52:18.031Z,2.93
2019-03-04T12:54:45.082Z,3.43
2019-03-04T12:57:12.107Z,3.33
2019-03-04T12:59:39.023Z,3.13
2019-03-04T13:02:06.043Z,2.57
2019-03-04T13:04:33.037Z,2.33
2019-03-04T13:07:00.086Z,2.80
2019-03-04T13:09:27.089Z,2.30
2019-03-04T13:11:54.131Z,2.77
2019-03-04T13:14:21.050Z,2.73
2019-03-04T13:16:48.904Z,2.17
2019-03-04T13:19:17.342Z,2.73
2019-03-04T13:21:42.850Z,2.47
2019-03-04T13:24:10.936Z,2.50
2019-03-04T13:26:37.958Z,2.10
2019-03-04T13:29:05.083Z,2.43
2019-03-04T13:31:31.918Z,2.33
2019-03-04T13:33:58.931Z,2.57
2019-03-04T13:36:25.897Z,2.07
2019-03-04T13:38:52.867Z,4.20
2019-03-04T13:41:19.861Z,3.37
2019-03-04T13:43:46.875Z,3.40
2019-03-04T13:46:13.877Z,3.00
2019-03-04T13:48:41.544Z,2.47
2019-03-04T13:51:08.536Z,2.77
2019-03-04T13:53:35.508Z,2.13
2019-03-04T13:56:03.486Z,2.20
2019-03-04T13:58:30.484Z,2.00
2019-03-04T14:00:57.539Z,1.83
2019-03-04T14:03:24.512Z,2.07
2019-03-04T14:05:51.484Z,1.70
2019-03-04T14:08:18.520Z,2.93
2019-03-04T14:10:45.515Z,2.27
2019-03-04T14:13:12.524Z,1.53
2019-03-04T14:15:39.534Z,1.80
2019-03-04T14:18:06.531Z,2.80
2019-03-04T14:20:35.037Z,2.97
2019-03-04T14:23:07.396Z,1.93
2019-03-04T14:25:34.395Z,3.53
2019-03-04T14:28:01.373Z,1.40
2019-03-04T14:30:28.558Z,2.00
2019-03-04T14:32:55.612Z,2.00
2019-03-04T14:35:22.790Z,2.63
2019-03-04T14:37:49.745Z,2.10
2019-03-04T14:40:16.908Z,1.80
2019-03-04T14:42:44.070Z,1.90
2019-03-04T14:45:13.611Z,2.17
2019-03-04T14:47:40.624Z,1.80
2019-03-04T14:50:10.365Z,2.00
2019-03-04T14:52:37.547Z,1.57
2019-03-04T14:55:06.486Z,2.23
2019-03-04T14:57:33.500Z,1.70
2019-03-04T15:00:00.575Z,2.33
2019-03-04T15:02:28.411Z,2.40
2019-03-04T15:04:55.541Z,1.70
2019-03-04T15:07:22.512Z,4.42
2019-03-04T15:09:58.203Z,3.17
2019-03-04T15:12:25.337Z,2.40
2019-03-04T15:14:52.329Z,2.30
2019-03-04T15:17:20.691Z,2.33
2019-03-04T15:19:47.672Z,1.63
2019-03-04T15:22:14.699Z,2.47
2019-03-04T15:24:41.727Z,1.73
2019-03-04T15:27:08.773Z,1.50
2019-03-04T15:29:35.802Z,2.03
2019-03-04T15:32:02.808Z,1.67
2019-03-04T15:34:29.785Z,2.35
2019-03-04T15:36:56.837Z,2.20
2019-03-04T15:39:24.016Z,2.20
2019-03-04T15:41:51.154Z,3.97
2019-03-04T15:44:18.658Z,3.40
2019-03-04T15:46:45.699Z,2.67
2019-03-04T15:49:12.639Z,3.50
2019-03-04T15:51:39.606Z,3.30
2019-03-04T15:54:06.661Z,5.17
2019-03-04T15:56:35.537Z,3.87
2019-03-04T15:59:01.559Z,3.83
2019-03-04T16:01:28.537Z,4.87
2019-03-04T16:03:55.995Z,4.27
2019-03-04T16:06:23.017Z,5.13
2019-03-04T16:08:49.957Z,2.87
2019-03-04T16:11:17.030Z,3.37
2019-03-04T16:13:52.582Z,2.53
2019-03-04T16:16:13.862Z,2.00
2019-03-04T16:18:40.954Z,2.43
2019-03-04T16:21:08.179Z,5.90
2019-03-04T16:23:35.332Z,2.40
2019-03-04T16:26:06.822Z,3.07
2019-03-04T16:28:34.508Z,2.03
2019-03-04T16:31:01.714Z,1.93
2019-03-04T16:33:28.717Z,2.10
2019-03-04T16:35:57.825Z,2.27
2019-03-04T16:38:25.079Z,3.43
2019-03-04T16:40:52.264Z,4.00
2019-03-04T16:43:19.631Z,4.13
2019-03-04T16:45:46.736Z,3.27
2019-03-04T16:48:14.871Z,4.73
2019-03-04T16:50:42.046Z,3.47
2019-03-04T16:53:09.950Z,2.80
2019-03-04T17:00:53.689Z,3.33
2019-03-04T17:03:22.348Z,2.33
2019-03-04T17:05:49.462Z,3.83
2019-03-04T17:08:16.476Z,3.43
2019-03-04T17:10:44.087Z,3.87
2019-03-04T17:13:11.124Z,4.77
2019-03-04T17:15:38.123Z,3.40
2019-03-04T17:18:05.174Z,3.93
2019-03-04T17:20:32.140Z,4.70
2019-03-04T17:23:00.850Z,3.13
2019-03-04T17:25:27.825Z,3.30
2019-03-04T17:27:55.751Z,2.33
2019-03-04T17:30:22.804Z,2.53
2019-03-04T17:32:49.807Z,6.30
2019-03-04T17:35:16.894Z,3.27
2019-03-04T17:37:43.848Z,1.87
2019-03-04T17:40:11.470Z,2.67
2019-03-04T17:42:38.508Z,3.47
2019-03-04T17:45:06.552Z,2.83
2019-03-04T17:47:33.531Z,4.50
2019-03-04T17:50:00.613Z,4.87
2019-03-04T17:52:28.438Z,4.47
2019-03-04T17:54:55.472Z,8.10
2019-03-04T17:57:22.544Z,5.23
2019-03-04T17:59:50.799Z,3.83
2019-03-04T18:02:18.071Z,4.43
2019-03-04T18:04:45.178Z,3.70
2019-03-04T18:07:12.969Z,2.80
2019-03-04T18:09:40.211Z,3.70
2019-03-04T18:12:07.285Z,4.17
2019-03-04T18:14:34.250Z,4.27
2019-03-04T18:17:01.297Z,3.60
2019-03-04T18:19:28.879Z,2.43
2019-03-04T18:21:55.914Z,2.40
2019-03-04T18:24:23.524Z,4.57
2019-03-04T18:27:00.703Z,2.70
2019-03-04T18:29:46.767Z,3.40
2019-03-04T18:32:27.178Z,3.73
2019-03-04T18:35:22.409Z,2.20
2019-03-04T18:38:06.012Z,2.40
2019-03-04T18:41:00.206Z,6.07
2019-03-04T18:43:38.882Z,3.27
2019-03-04T18:46:22.806Z,3.90
2019-03-04T18:48:52.195Z,2.60
2019-03-04T18:51:19.194Z,3.90
2019-03-04T18:53:46.167Z,2.70
2019-03-04T18:56:21.751Z,3.33
2019-03-04T18:58:40.271Z,4.57
2019-03-04T19:01:07.339Z,2.97
2019-03-04T19:03:34.835Z,4.10
2019-03-04T19:06:01.840Z,2.80
2019-03-04T19:08:29.128Z,4.23
2019-03-04T19:10:56.192Z,3.77
2019-03-04T19:13:23.144Z,3.10
2019-03-04T19:15:50.938Z,2.67
2019-03-04T19:18:17.950Z,4.13
2019-03-04T19:20:44.934Z,3.07
2019-03-04T19:23:11.974Z,3.60
2019-03-04T19:25:38.918Z,3.53
2019-03-04T19:28:05.892Z,3.40
2019-03-04T19:30:32.870Z,3.60
2019-03-04T19:32:59.950Z,4.33
2019-03-04T19:35:26.907Z,4.73
2019-03-04T19:37:53.907Z,4.07
2019-03-04T19:40:20.873Z,5.17
2019-03-04T19:42:47.883Z,5.87
2019-03-04T19:45:14.868Z,10.50
2019-03-04T19:47:41.899Z,12.23
2019-03-04T19:50:09.523Z,8.57
2019-03-04T19:52:36.608Z,5.17
2019-03-04T19:55:05.247Z,3.50
2019-03-04T19:57:32.215Z,4.73
2019-03-04T19:59:59.268Z,5.57
2019-03-04T20:07:20.944Z,5.47
2019-03-04T20:09:47.980Z,5.17
2019-03-04T20:12:14.927Z,4.70
2019-03-04T20:14:42.486Z,5.17
2019-03-04T20:17:10.965Z,7.67
2019-03-04T20:19:38.116Z,4.70
2019-03-04T20:22:06.182Z,6.10
2019-03-04T20:24:34.225Z,6.90
2019-03-04T20:27:01.196Z,7.93
2019-03-04T20:29:28.275Z,6.00
2019-03-04T20:31:55.869Z,4.83
2019-03-04T20:34:22.793Z,6.50
2019-03-04T20:36:49.884Z,3.37
2019-03-04T20:39:16.898Z,4.83
2019-03-04T20:41:43.847Z,3.57
2019-03-04T20:44:11.509Z,5.13
2019-03-04T20:46:38.498Z,3.53
2019-03-04T20:49:05.553Z,4.10
2019-03-04T20:51:32.493Z,3.83
2019-03-04T20:53:59.496Z,2.80
2019-03-04T20:56:26.436Z,4.60
2019-03-04T20:58:53.398Z,3.00
2019-03-04T21:01:20.428Z,4.87
2019-03-04T21:03:47.584Z,4.47
2019-03-04T21:06:15.161Z,6.60
2019-03-04T21:08:42.678Z,6.07
2019-03-04T21:11:09.791Z,5.00
2019-03-04T21:13:36.899Z,4.33
2019-03-04T21:16:03.936Z,4.03
2019-03-04T21:18:31.541Z,3.73
2019-03-04T21:20:58.551Z,3.13
2019-03-04T21:23:25.487Z,2.93
2019-03-04T21:25:58.753Z,3.50
2019-03-04T21:28:35.410Z,3.70
2019-03-04T21:31:15.224Z,3.80
2019-03-04T21:33:53.770Z,3.60
2019-03-04T21:36:34.608Z,3.47
2019-03-04T21:39:02.855Z,5.30
2019-03-04T21:41:35.175Z,4.20
2019-03-04T21:44:22.465Z,3.40
2019-03-04T21:47:08.674Z,3.57
2019-03-04T21:49:40.034Z,3.80
2019-03-04T21:52:32.960Z,3.30
2019-03-04T21:55:01.088Z,2.80
2019-03-04T21:57:32.941Z,3.30
2019-03-04T22:00:00.911Z,4.80
2019-03-04T22:02:32.986Z,7.05
2019-03-04T22:05:03.051Z,3.60
2019-03-04T22:07:30.093Z,3.43
2019-03-04T22:09:57.071Z,3.83
2019-03-04T22:12:23.997Z,3.03
2019-03-04T22:14:51.017Z,3.33
2019-03-04T22:17:17.991Z,2.97
2019-03-04T22:19:44.989Z,4.13
2019-03-04T22:22:11.968Z,4.17
2019-03-04T22:24:38.942Z,2.87
2019-03-04T22:27:05.960Z,3.40
2019-03-04T22:29:33.023Z,4.60
2019-03-04T22:32:00.025Z,3.47
2019-03-04T22:34:27.110Z,2.70
2019-03-04T22:36:54.090Z,3.07
2019-03-04T22:39:21.074Z,2.93
2019-03-04T22:41:48.028Z,2.93
2019-03-04T22:44:15.025Z,3.80
2019-03-04T22:46:41.954Z,2.80
2019-03-04T22:49:08.995Z,3.43
2019-03-04T22:51:35.895Z,2.80
2019-03-04T22:54:02.974Z,3.53
2019-03-04T22:56:29.965Z,3.40
2019-03-04T22:58:57.003Z,3.47
2019-03-04T23:01:36.642Z,3.10
2019-03-04T23:04:12.480Z,3.87
2019-03-04T23:06:43.584Z,3.77
2019-03-04T23:09:11.521Z,4.10
2019-03-04T23:11:41.021Z,4.33
2019-03-04T23:14:12.794Z,3.33
2019-03-04T23:16:39.737Z,3.10
2019-03-04T23:19:06.782Z,2.90
2019-03-04T23:21:33.788Z,6.63
2019-03-04T23:24:00.775Z,3.30
2019-03-04T23:26:27.738Z,3.03
2019-03-04T23:28:54.620Z,2.80
2019-03-04T23:31:21.550Z,2.90
2019-03-04T23:33:48.515Z,3.10
2019-03-04T23:36:15.443Z,3.10
2019-03-04T23:38:42.397Z,3.50
2019-03-04T23:41:09.340Z,3.73
2019-03-04T23:43:36.281Z,3.40
2019-03-04T23:46:03.202Z,3.40
2019-03-04T23:48:30.167Z,2.97
2019-03-04T23:50:57.212Z,3.30
2019-03-04T23:53:24.209Z,3.57
2019-03-04T23:55:51.162Z,3.10
2019-03-04T23:58:18.111Z,3.00
